Time;durP1;ratioP1;P1;durP2;ratioP2;P2;SDS_P1;SDS_P2;PMS_P1;PMS_P2;Temp;Humidity;BMP_temperature;BMP_pressure;BME280_temperature;BME280_humidity;BME280_pressure;Samples;Min_cycle;Max_cycle;Signal;HPM_P1;HPM_P2
2022/01/04 00:02:22;;;;;;;27.30;15.18;;;;;;;8.72;100.00;100106.09;5042802;28;20108;-73
2022/01/04 00:04:48;;;;;;;31.98;15.18;;;;;;;8.59;100.00;100102.34;5040575;28;20041;-71
2022/01/04 00:07:13;;;;;;;23.83;14.13;;;;;;;8.68;100.00;100107.84;5040702;28;20823;-73
2022/01/04 00:09:43;;;;;;;29.60;15.35;;;;;;;8.68;100.00;100110.56;5040483;28;20094;-72
2022/01/04 00:14:55;;;;;;;28.95;16.25;;;;;;;8.53;100.00;100088.06;5042389;28;20045;-71
2022/01/04 00:17:20;;;;;;;26.85;14.98;;;;;;;8.53;100.00;100085.34;5042491;28;20132;-72
2022/01/04 00:19:46;;;;;;;29.77;14.85;;;;;;;8.63;100.00;100083.50;5040414;28;20053;-72
2022/01/04 00:22:11;;;;;;;24.98;15.10;;;;;;;8.58;100.00;100077.09;5039651;28;20041;-73
2022/01/04 00:24:37;;;;;;;32.70;15.85;;;;;;;8.60;100.00;100072.13;5040560;28;20057;-71
2022/01/04 00:27:03;;;;;;;23.10;15.43;;;;;;;8.58;100.00;100066.22;5041746;28;20052;-72
2022/01/04 00:29:28;;;;;;;29.38;16.50;;;;;;;8.58;100.00;100060.78;5040123;28;20183;-71
2022/01/04 00:31:54;;;;;;;32.47;15.45;;;;;;;8.60;100.00;100053.09;5039193;28;20045;-71
2022/01/04 00:34:19;;;;;;;25.30;16.08;;;;;;;8.50;100.00;100053.34;5037858;28;20454;-71
2022/01/04 00:36:44;;;;;;;30.08;16.55;;;;;;;8.57;100.00;100051.00;5036654;28;20049;-73
2022/01/04 00:39:10;;;;;;;23.40;15.20;;;;;;;8.55;100.00;100033.41;5035116;28;20048;-72
2022/01/04 00:41:35;;;;;;;30.17;16.08;;;;;;;8.53;100.00;100039.16;5036465;28;20466;-72
2022/01/04 00:44:01;;;;;;;26.60;16.45;;;;;;;8.58;100.00;100041.75;5037665;28;20072;-71
2022/01/04 00:46:26;;;;;;;29.50;16.10;;;;;;;8.48;100.00;100027.59;5037182;28;20609;-72
2022/01/04 00:49:10;;;;;;;29.42;15.48;;;;;;;8.52;100.00;100023.16;5032380;28;20540;-70
2022/01/04 00:51:36;;;;;;;30.20;14.57;;;;;;;8.37;100.00;100016.16;5017066;28;20037;-71
2022/01/04 00:54:02;;;;;;;29.85;14.90;;;;;;;8.31;100.00;100014.66;5035085;28;20091;-73
2022/01/04 00:56:28;;;;;;;22.90;14.98;;;;;;;8.24;100.00;100008.88;5037766;28;20155;-71
2022/01/04 00:58:53;;;;;;;26.77;14.63;;;;;;;8.27;100.00;100011.78;5036754;28;20493;-71
2022/01/04 01:01:20;;;;;;;34.97;15.13;;;;;;;8.14;100.00;100002.56;5036297;28;20059;-72
2022/01/04 01:03:46;;;;;;;25.10;13.98;;;;;;;8.10;100.00;100006.19;5019529;28;20037;-73
2022/01/04 01:06:11;;;;;;;26.35;15.05;;;;;;;8.20;100.00;100005.16;5015719;28;20957;-72
2022/01/04 01:08:36;;;;;;;30.27;13.95;;;;;;;8.23;100.00;99999.09;5015585;28;20562;-72
2022/01/04 01:11:04;;;;;;;26.08;13.95;;;;;;;8.19;100.00;99987.25;5016819;28;20068;-71
2022/01/04 01:13:30;;;;;;;27.90;12.82;;;;;;;8.27;100.00;99989.25;5015971;28;20478;-71
2022/01/04 01:15:55;;;;;;;24.42;12.18;;;;;;;8.21;100.00;99979.63;5016317;28;20108;-72
2022/01/04 01:18:20;;;;;;;21.75;12.70;;;;;;;8.33;100.00;99988.00;5015762;28;20044;-71
2022/01/04 01:20:48;;;;;;;22.75;12.43;;;;;;;8.30;100.00;99985.91;5016488;28;20100;-71
2022/01/04 01:23:13;;;;;;;27.10;13.35;;;;;;;8.32;100.00;99980.94;5015781;28;20180;-71
2022/01/04 01:25:39;;;;;;;26.35;13.02;;;;;;;8.36;100.00;99976.53;5014038;28;20293;-72
2022/01/04 01:28:04;;;;;;;23.08;12.18;;;;;;;8.34;100.00;99973.31;5015385;28;20776;-72
2022/01/04 01:30:32;;;;;;;23.58;12.68;;;;;;;8.43;100.00;99968.75;5016509;28;20206;-72
2022/01/04 01:32:58;;;;;;;26.02;13.07;;;;;;;8.45;100.00;99957.59;5017110;28;20051;-72
2022/01/04 01:35:24;;;;;;;22.50;12.07;;;;;;;8.33;100.00;99963.56;5016665;28;20041;-71
2022/01/04 01:37:49;;;;;;;25.13;13.18;;;;;;;8.41;100.00;99962.03;5016405;28;20487;-73
2022/01/04 01:40:15;;;;;;;25.25;13.18;;;;;;;8.51;100.00;99968.00;5016689;28;20435;-71
2022/01/04 01:42:40;;;;;;;19.98;13.02;;;;;;;8.58;100.00;99962.13;5016637;28;20194;-72
2022/01/04 01:45:08;;;;;;;26.63;13.02;;;;;;;8.53;100.00;99967.72;5016165;28;20041;-72
2022/01/04 01:47:33;;;;;;;23.70;12.40;;;;;;;8.51;100.00;99962.56;5015768;28;20513;-72
2022/01/04 01:49:59;;;;;;;26.77;13.35;;;;;;;8.46;100.00;99959.97;5028851;28;20072;-72
2022/01/04 01:52:24;;;;;;;20.98;13.18;;;;;;;8.54;100.00;99956.50;5034081;28;20561;-71
2022/01/04 01:54:50;;;;;;;23.92;12.73;;;;;;;8.48;100.00;99949.59;5034662;28;20084;-71
2022/01/04 01:57:15;;;;;;;20.42;12.40;;;;;;;8.49;100.00;99945.75;5034821;28;20390;-71
2022/01/04 01:59:41;;;;;;;25.55;12.93;;;;;;;8.54;100.00;99944.84;5033331;28;20047;-72
2022/01/04 02:02:06;;;;;;;24.42;13.30;;;;;;;8.47;100.00;99945.31;5029681;28;20033;-73
2022/01/04 02:04:31;;;;;;;24.95;12.18;;;;;;;8.45;100.00;99944.00;5013780;28;20045;-71
2022/01/04 02:06:57;;;;;;;24.85;13.25;;;;;;;8.47;100.00;99942.59;5013695;28;20049;-72
2022/01/04 02:09:24;;;;;;;25.13;13.90;;;;;;;8.60;100.00;99947.09;5013658;28;20087;-71
2022/01/04 02:11:50;;;;;;;23.33;12.85;;;;;;;8.44;100.00;99935.06;5014832;28;20040;-72
2022/01/04 02:14:16;;;;;;;23.48;13.38;;;;;;;8.42;100.00;99920.97;5012539;28;20049;-71
2022/01/04 02:16:42;;;;;;;26.80;13.20;;;;;;;8.49;100.00;99918.59;5012653;28;20137;-72
2022/01/04 02:19:08;;;;;;;24.13;13.18;;;;;;;8.50;100.00;99912.06;5013218;28;20042;-73
2022/01/04 02:21:35;;;;;;;27.42;13.93;;;;;;;8.48;100.00;99918.94;5012407;28;20458;-71
2022/01/04 02:24:01;;;;;;;24.80;13.52;;;;;;;8.54;100.00;99913.03;5013773;28;20042;-73
2022/01/04 02:26:30;;;;;;;25.63;14.23;;;;;;;8.59;100.00;99909.38;4997065;28;20328;-72
2022/01/04 02:28:55;;;;;;;31.27;14.85;;;;;;;8.51;100.00;99902.00;5015407;28;20044;-73
2022/01/04 02:31:21;;;;;;;25.13;14.25;;;;;;;8.47;100.00;99890.97;5015043;28;20038;-72
2022/01/04 02:33:46;;;;;;;33.35;16.98;;;;;;;8.49;100.00;99890.63;5014712;28;20180;-71
2022/01/04 02:36:12;;;;;;;32.60;15.77;;;;;;;8.52;100.00;99890.81;5014548;28;20050;-71
2022/01/04 02:38:37;;;;;;;35.30;15.77;;;;;;;8.57;100.00;99901.53;5012728;28;20514;-72
2022/01/04 02:41:03;;;;;;;34.78;15.02;;;;;;;8.54;100.00;99895.94;5014445;28;20110;-72
2022/01/04 02:43:29;;;;;;;33.17;15.50;;;;;;;8.54;100.00;99887.78;5013433;28;20131;-71
2022/01/04 02:45:55;;;;;;;27.27;14.63;;;;;;;8.51;100.00;99886.50;5015254;28;20107;-72
2022/01/04 02:48:21;;;;;;;33.15;16.55;;;;;;;8.56;100.00;99883.63;5014730;28;20041;-71
2022/01/04 02:50:46;;;;;;;35.15;15.90;;;;;;;8.44;100.00;99896.22;5034457;28;20143;-71
2022/01/04 02:53:11;;;;;;;27.65;16.00;;;;;;;8.54;100.00;99880.44;5034808;28;20037;-71
2022/01/04 02:55:37;;;;;;;30.63;16.58;;;;;;;8.53;100.00;99884.28;5033115;28;20475;-70
2022/01/04 02:58:02;;;;;;;27.95;15.77;;;;;;;8.50;100.00;99884.91;5034175;28;20067;-72
2022/01/04 03:00:28;;;;;;;25.30;15.63;;;;;;;8.44;100.00;99869.06;5035258;28;20051;-72
2022/01/04 03:02:55;;;;;;;31.73;16.58;;;;;;;8.34;100.00;99859.22;5022096;28;20040;-73
2022/01/04 03:05:21;;;;;;;33.72;17.15;;;;;;;8.33;100.00;99858.41;5014329;28;20079;-73
2022/01/04 03:07:46;;;;;;;37.78;16.90;;;;;;;8.29;100.00;99853.91;5012129;28;20037;-72
2022/01/04 03:10:11;;;;;;;31.55;16.45;;;;;;;8.24;100.00;99854.06;5013060;28;20053;-72
2022/01/04 03:12:42;;;;;;;31.50;16.08;;;;;;;8.18;100.00;99850.69;5013058;28;20049;-71
2022/01/04 03:15:08;;;;;;;28.95;15.30;;;;;;;8.17;100.00;99849.06;5014896;28;20053;-72
2022/01/04 03:17:33;;;;;;;29.13;14.52;;;;;;;8.07;100.00;99839.28;5014422;28;20489;-71
2022/01/04 03:19:59;;;;;;;25.45;13.80;;;;;;;8.10;100.00;99843.28;5013249;28;20358;-72
2022/01/04 03:22:24;;;;;;;26.50;13.75;;;;;;;8.05;100.00;99836.06;5012320;28;20041;-72
2022/01/04 03:24:49;;;;;;;28.35;13.30;;;;;;;8.11;100.00;99840.25;5015260;28;20037;-72
2022/01/04 03:27:15;;;;;;;29.13;13.38;;;;;;;8.06;100.00;99826.81;5014401;28;20037;-71
2022/01/04 03:29:40;;;;;;;30.98;14.85;;;;;;;7.99;100.00;99825.66;5014322;28;20128;-72
2022/01/04 03:32:06;;;;;;;30.50;14.50;;;;;;;8.02;100.00;99823.09;5013086;28;20064;-72
2022/01/04 03:34:32;;;;;;;31.23;14.20;;;;;;;8.03;100.00;99819.31;5013717;28;20569;-71
2022/01/04 03:36:57;;;;;;;26.15;13.18;;;;;;;7.99;100.00;99818.31;5014916;28;20036;-71
2022/01/04 03:39:23;;;;;;;25.25;13.98;;;;;;;7.95;100.00;99806.47;5012518;28;20561;-72
2022/01/04 03:41:50;;;;;;;24.83;14.25;;;;;;;8.05;100.00;99813.53;5012164;28;20376;-71
2022/01/04 03:44:19;;;;;;;27.20;14.48;;;;;;;8.05;100.00;99797.25;5012083;28;20049;-72
2022/01/04 03:46:50;;;;;;;25.67;13.93;;;;;;;7.97;100.00;99785.25;4995802;28;20156;-73
2022/01/04 03:49:16;;;;;;;36.08;15.18;;;;;;;8.14;100.00;99774.47;5021475;28;20064;-72
2022/01/04 03:51:41;;;;;;;25.80;14.50;;;;;;;8.15;100.00;99770.63;5033476;28;20171;-72
2022/01/04 03:54:07;;;;;;;30.25;15.07;;;;;;;8.20;100.00;99766.97;5033742;28;20484;-72
2022/01/04 03:56:32;;;;;;;29.77;15.38;;;;;;;8.11;100.00;99747.91;5031561;28;20052;-71
2022/01/04 03:58:58;;;;;;;26.92;14.95;;;;;;;8.09;100.00;99739.31;5032185;28;20723;-72
2022/01/04 04:01:24;;;;;;;30.13;14.98;;;;;;;8.00;100.00;99735.75;5033645;28;20103;-72
2022/01/04 04:03:49;;;;;;;29.25;15.07;;;;;;;7.98;100.00;99727.13;5014255;28;20088;-73
2022/01/04 04:06:14;;;;;;;35.17;15.38;;;;;;;7.96;100.00;99723.91;5014340;28;20064;-73
2022/01/04 04:08:40;;;;;;;28.85;15.45;;;;;;;7.93;100.00;99713.69;5013159;28;20179;-71
2022/01/04 04:11:05;;;;;;;34.78;15.77;;;;;;;7.99;100.00;99704.28;5014622;28;20041;-72
2022/01/04 04:13:31;;;;;;;28.35;15.23;;;;;;;8.04;100.00;99703.34;5015033;28;20466;-72
2022/01/04 04:15:56;;;;;;;32.58;16.38;;;;;;;8.11;100.00;99703.69;5014263;28;20449;-74
2022/01/04 04:18:22;;;;;;;30.27;15.73;;;;;;;8.12;100.00;99706.09;5017341;28;20045;-72
2022/01/04 04:20:47;;;;;;;32.13;15.93;;;;;;;8.03;100.00;99697.13;5018880;28;20494;-72
2022/01/04 04:23:13;;;;;;;33.63;17.08;;;;;;;8.00;100.00;99694.22;5017798;28;20056;-72
2022/01/04 04:25:39;;;;;;;37.97;16.98;;;;;;;8.09;100.00;99685.00;5018452;28;20041;-71
2022/01/04 04:28:04;;;;;;;36.10;16.42;;;;;;;8.00;100.00;99678.75;5016315;28;20049;-72
2022/01/04 04:30:30;;;;;;;32.92;18.25;;;;;;;8.02;100.00;99687.38;5016460;28;20103;-72
2022/01/04 04:32:56;;;;;;;38.13;18.50;;;;;;;8.02;100.00;99684.66;5018870;28;20113;-72
2022/01/04 04:35:21;;;;;;;38.58;18.08;;;;;;;8.09;100.00;99684.22;5017730;28;20053;-71
2022/01/04 04:37:47;;;;;;;32.35;17.00;;;;;;;8.11;100.00;99687.38;5017442;28;20056;-72
2022/01/04 04:40:13;;;;;;;30.90;16.55;;;;;;;8.03;100.00;99686.28;5018168;28;20463;-72
2022/01/04 04:42:39;;;;;;;32.15;15.55;;;;;;;7.98;100.00;99683.69;5017443;28;20504;-72
2022/01/04 04:45:05;;;;;;;36.30;16.88;;;;;;;7.99;100.00;99690.72;5017467;28;20041;-72
2022/01/04 04:47:31;;;;;;;34.03;15.43;;;;;;;8.08;100.00;99680.66;5017150;28;20052;-72
2022/01/04 04:49:56;;;;;;;31.10;15.18;;;;;;;8.03;100.00;99675.41;5029269;28;20049;-73
2022/01/04 04:52:22;;;;;;;35.25;15.73;;;;;;;8.00;100.00;99676.03;5034396;28;20049;-72
2022/01/04 04:54:48;;;;;;;29.85;15.65;;;;;;;8.06;100.00;99679.41;5034783;28;20082;-71
2022/01/04 04:57:15;;;;;;;42.28;15.18;;;;;;;8.06;100.00;99679.41;5020559;28;20037;-71
2022/01/04 04:59:40;;;;;;;31.42;15.05;;;;;;;8.14;100.00;99676.72;5019224;28;20048;-72
2022/01/04 05:02:07;;;;;;;30.10;14.45;;;;;;;8.07;100.00;99675.56;5020085;28;20086;-72
2022/01/04 05:04:34;;;;;;;32.15;15.55;;;;;;;8.04;100.00;99671.56;5019726;28;20041;-71
2022/01/04 05:07:00;;;;;;;31.23;16.33;;;;;;;7.95;100.00;99670.75;5017832;28;20045;-71
2022/01/04 05:09:25;;;;;;;35.10;16.48;;;;;;;8.00;100.00;99670.59;5017900;28;20048;-71
2022/01/04 05:11:50;;;;;;;34.95;16.80;;;;;;;7.89;100.00;99664.66;5016971;28;20042;-72
2022/01/04 05:14:16;;;;;;;34.88;15.70;;;;;;;8.00;100.00;99665.19;5018129;28;20044;-72
2022/01/04 05:16:41;;;;;;;30.35;14.82;;;;;;;7.99;100.00;99663.56;5018945;28;20131;-72
2022/01/04 05:19:07;;;;;;;38.28;17.08;;;;;;;8.07;100.00;99662.00;5020284;28;20755;-72
2022/01/04 05:21:32;;;;;;;33.85;16.88;;;;;;;8.04;100.00;99654.47;5004480;28;20371;-72
2022/01/04 05:23:58;;;;;;;41.80;17.00;;;;;;;8.00;100.00;99651.59;5020170;28;20051;-73
2022/01/04 05:26:23;;;;;;;30.52;16.38;;;;;;;8.04;100.00;99657.19;5022333;28;20474;-72
2022/01/04 05:28:49;;;;;;;31.17;16.63;;;;;;;8.03;100.00;99675.41;5021287;28;20484;-73
2022/01/04 05:31:14;;;;;;;36.22;17.17;;;;;;;8.08;100.00;99658.94;5020523;28;20120;-71
2022/01/04 05:33:41;;;;;;;32.42;16.73;;;;;;;8.01;100.00;99639.63;5022511;28;20037;-72
2022/01/04 05:36:06;;;;;;;37.28;17.02;;;;;;;7.97;100.00;99637.84;5022560;28;20463;-74
2022/01/04 05:38:32;;;;;;;37.33;16.65;;;;;;;7.92;100.00;99636.09;5022403;28;20038;-71
2022/01/04 05:40:58;;;;;;;34.25;17.33;;;;;;;7.94;100.00;99631.13;5020567;28;20053;-72
2022/01/04 05:43:23;;;;;;;36.50;16.27;;;;;;;7.94;100.00;99634.66;5022480;28;20060;-72
2022/01/04 05:45:49;;;;;;;36.72;16.38;;;;;;;7.94;100.00;99641.97;5021512;28;20037;-72
2022/01/04 05:48:15;;;;;;;33.90;16.63;;;;;;;7.93;100.00;99648.53;5022221;28;20041;-71
2022/01/04 05:50:42;;;;;;;36.42;17.00;;;;;;;7.95;100.00;99635.47;5041246;28;20367;-74
2022/01/04 05:53:07;;;;;;;32.72;16.65;;;;;;;7.89;100.00;99625.88;5042857;28;20044;-72
2022/01/04 05:55:33;;;;;;;36.63;17.92;;;;;;;7.95;100.00;99621.88;5034089;28;20041;-72
2022/01/04 05:57:58;;;;;;;37.70;17.70;;;;;;;8.00;100.00;99610.88;5020234;28;20049;-70
2022/01/04 06:00:24;;;;;;;33.60;15.90;;;;;;;7.97;100.00;99618.84;5022045;28;20045;-72
2022/01/04 06:02:49;;;;;;;36.85;17.48;;;;;;;8.08;100.00;99614.72;5003642;28;20450;-73
2022/01/04 06:05:15;;;;;;;42.33;18.52;;;;;;;7.99;100.00;99614.69;5018062;28;20033;-72
2022/01/04 06:07:40;;;;;;;33.63;17.88;;;;;;;7.97;100.00;99605.25;5016789;28;20139;-71
2022/01/04 06:10:08;;;;;;;39.50;17.58;;;;;;;8.08;100.00;99607.38;5027157;28;20029;-74
2022/01/04 06:15:09;;;;;;;32.95;18.00;;;;;;;8.06;100.00;99612.31;5016170;28;20140;-72
2022/01/04 06:17:39;;;;;;;32.40;17.52;;;;;;;8.01;100.00;99604.34;5014480;28;20414;-72
2022/01/04 06:20:09;;;;;;;32.13;16.17;;;;;;;8.02;100.00;99611.34;5012407;28;20041;-72
2022/01/04 06:22:38;;;;;;;38.75;19.80;;;;;;;7.98;100.00;99613.09;5019628;28;20064;-73
2022/01/04 06:25:05;;;;;;;33.10;16.17;;;;;;;7.98;100.00;99613.09;5017453;28;20048;-72
2022/01/04 06:27:30;;;;;;;32.00;16.80;;;;;;;8.07;100.00;99608.50;5014658;28;20037;-71
2022/01/04 06:29:57;;;;;;;35.75;16.58;;;;;;;7.99;100.00;99597.63;5012949;28;20204;-73
2022/01/04 06:32:23;;;;;;;35.90;17.77;;;;;;;7.95;100.00;99600.16;5015021;28;20406;-73
2022/01/04 06:34:48;;;;;;;32.20;16.95;;;;;;;7.97;100.00;99597.94;5030175;28;20523;-73
2022/01/04 06:37:14;;;;;;;35.03;17.60;;;;;;;7.92;100.00;99592.66;5019063;28;20099;-71
2022/01/04 06:39:40;;;;;;;33.10;17.70;;;;;;;7.96;100.00;99587.38;5011494;28;20099;-72
2022/01/04 06:42:06;;;;;;;33.83;16.20;;;;;;;7.85;100.00;99582.28;5013247;28;20041;-74
2022/01/04 06:44:32;;;;;;;36.75;17.33;;;;;;;8.00;100.00;99597.31;5012997;28;20250;-72
2022/01/04 06:46:57;;;;;;;34.05;15.85;;;;;;;7.88;100.00;99597.09;5011313;28;20106;-72
2022/01/04 06:49:23;;;;;;;36.50;16.45;;;;;;;7.97;100.00;99600.66;5021415;28;20676;-72
2022/01/04 06:51:49;;;;;;;33.35;16.45;;;;;;;8.00;100.00;99604.63;5034875;28;20041;-72
2022/01/04 06:54:16;;;;;;;32.25;15.20;;;;;;;7.97;100.00;99610.69;5013879;28;20053;-72
2022/01/04 06:56:42;;;;;;;35.40;15.82;;;;;;;7.94;100.00;99612.13;5014440;28;20060;-71
2022/01/04 06:59:08;;;;;;;32.35;15.30;;;;;;;7.92;100.00;99587.22;5014171;28;20189;-72
2022/01/04 07:01:35;;;;;;;37.65;16.85;;;;;;;7.99;100.00;99576.69;5014355;28;20375;-74
2022/01/04 07:04:00;;;;;;;33.53;16.63;;;;;;;7.85;100.00;99565.16;5033017;28;20555;-72
2022/01/04 07:06:26;;;;;;;34.25;16.05;;;;;;;7.95;100.00;99575.75;5032582;28;20029;-71
2022/01/04 07:08:52;;;;;;;37.10;17.98;;;;;;;8.04;100.00;99568.41;5034240;28;20044;-71
2022/01/04 07:11:17;;;;;;;35.33;16.13;;;;;;;8.01;100.00;99560.91;5023379;28;20073;-71
2022/01/04 07:13:42;;;;;;;37.25;16.67;;;;;;;8.01;100.00;99546.53;5013712;28;20083;-73
2022/01/04 07:16:08;;;;;;;38.38;16.60;;;;;;;7.99;100.00;99560.41;5013540;28;20068;-72
2022/01/04 07:18:34;;;;;;;33.47;16.08;;;;;;;7.93;100.00;99557.03;5012923;28;20040;-73
2022/01/04 07:20:59;;;;;;;37.20;17.90;;;;;;;7.98;100.00;99553.38;5013798;28;20048;-72
2022/01/04 07:23:25;;;;;;;40.67;16.60;;;;;;;7.92;100.00;99543.81;5014267;28;20064;-73
2022/01/04 07:25:51;;;;;;;33.03;16.50;;;;;;;7.88;100.00;99540.94;5012045;28;20100;-72
2022/01/04 07:28:17;;;;;;;41.45;18.27;;;;;;;7.95;100.00;99543.16;5013322;28;20045;-70
2022/01/04 07:30:42;;;;;;;34.10;17.15;;;;;;;7.87;100.00;99538.53;5013443;28;20466;-73
2022/01/04 07:33:08;;;;;;;46.40;18.65;;;;;;;8.02;100.00;99538.03;5012466;28;20048;-73
2022/01/04 07:35:33;;;;;;;37.90;17.92;;;;;;;7.98;100.00;99550.66;5013102;28;20040;-73
2022/01/04 07:37:59;;;;;;;36.80;18.50;;;;;;;7.87;100.00;99546.66;5012882;28;20450;-72
2022/01/04 07:40:24;;;;;;;36.10;17.20;;;;;;;7.93;100.00;99542.69;5012110;28;20137;-73
2022/01/04 07:42:50;;;;;;;34.72;17.10;;;;;;;7.89;100.00;99542.50;5015021;28;20045;-72
2022/01/04 07:45:16;;;;;;;42.50;18.08;;;;;;;7.91;100.00;99531.31;5017998;28;20049;-72
2022/01/04 07:47:41;;;;;;;39.65;18.77;;;;;;;7.94;100.00;99525.25;5015768;28;20561;-73
2022/01/04 07:50:11;;;;;;;41.95;19.17;;;;;;;7.94;100.00;99519.84;5012896;28;20442;-72
2022/01/04 07:52:37;;;;;;;44.78;18.67;;;;;;;7.89;100.00;99517.28;5017150;28;20029;-72
2022/01/04 07:55:04;;;;;;;40.97;19.00;;;;;;;7.89;100.00;99514.56;5020547;28;20045;-72
2022/01/04 07:57:29;;;;;;;38.58;17.85;;;;;;;7.86;100.00;99515.22;5023191;28;20441;-72
2022/01/04 07:59:55;;;;;;;42.38;19.38;;;;;;;7.92;100.00;99511.22;5021897;28;20141;-72
2022/01/04 08:02:20;;;;;;;43.70;18.05;;;;;;;7.93;100.00;99507.38;5022727;28;20433;-71
2022/01/04 08:04:46;;;;;;;43.65;19.48;;;;;;;7.93;100.00;99512.81;5025028;28;20544;-72
2022/01/04 08:07:11;;;;;;;45.28;19.40;;;;;;;7.92;100.00;99513.94;5014653;28;20509;-73
2022/01/04 08:09:37;;;;;;;36.20;18.35;;;;;;;7.90;100.00;99519.69;5035844;28;20106;-72
2022/01/04 08:12:03;;;;;;;47.47;19.95;;;;;;;7.78;100.00;99522.22;5036699;28;20095;-72
2022/01/04 08:14:29;;;;;;;47.42;20.13;;;;;;;7.85;100.00;99519.03;5037474;28;20122;-71
2022/01/04 08:16:54;;;;;;;46.33;20.95;;;;;;;7.87;100.00;99530.38;5037939;28;20470;-73
2022/01/04 08:19:20;;;;;;;46.70;18.77;;;;;;;7.81;100.00;99526.22;5023641;28;20584;-72
2022/01/04 08:21:45;;;;;;;44.53;20.67;;;;;;;7.84;100.00;99526.38;5015010;28;20050;-73
2022/01/04 08:24:11;;;;;;;50.55;21.35;;;;;;;7.95;100.00;99521.44;5015160;28;20041;-72
2022/01/04 08:26:36;;;;;;;45.90;20.40;;;;;;;7.86;100.00;99524.16;5026130;28;20042;-73
2022/01/04 08:29:02;;;;;;;45.08;20.75;;;;;;;7.89;100.00;99528.94;5027014;28;20099;-72
2022/01/04 08:31:27;;;;;;;43.40;20.17;;;;;;;7.97;100.00;99534.69;5014941;28;20599;-71
2022/01/04 08:33:54;;;;;;;51.60;20.92;;;;;;;8.00;100.00;99525.91;5014871;28;20045;-73
2022/01/04 08:36:26;;;;;;;47.78;21.45;;;;;;;7.86;100.00;99534.22;5015082;28;20037;-72
2022/01/04 08:38:52;;;;;;;50.33;20.77;;;;;;;8.01;100.00;99536.47;5016594;28;20049;-72
2022/01/04 08:41:17;;;;;;;46.97;22.70;;;;;;;8.00;100.00;99536.75;5023092;28;20047;-73
2022/01/04 08:43:43;;;;;;;52.20;22.50;;;;;;;8.09;100.00;99532.16;5019168;28;20045;-73
2022/01/04 08:46:08;;;;;;;44.50;21.00;;;;;;;8.04;100.00;99530.38;5016961;28;20046;-72
2022/01/04 08:48:33;;;;;;;52.17;22.52;;;;;;;7.98;100.00;99515.38;5018338;28;20042;-72
2022/01/04 08:50:59;;;;;;;45.45;21.85;;;;;;;8.09;100.00;99522.09;5035093;28;20397;-72
2022/01/04 08:53:24;;;;;;;49.17;23.90;;;;;;;8.01;100.00;99525.59;5035324;28;20040;-73
2022/01/04 08:55:50;;;;;;;54.63;23.67;;;;;;;8.02;100.00;99532.63;5036071;28;20477;-73
2022/01/04 08:58:15;;;;;;;56.30;23.50;;;;;;;8.14;100.00;99521.94;5035259;28;20040;-73
2022/01/04 09:00:42;;;;;;;49.53;23.05;;;;;;;8.22;100.00;99522.25;5035769;28;20045;-72
2022/01/04 09:03:07;;;;;;;53.92;23.70;;;;;;;8.25;100.00;99524.31;5023464;28;20379;-72
2022/01/04 09:05:33;;;;;;;52.20;22.88;;;;;;;8.27;100.00;99536.47;5016931;28;20040;-73
2022/01/04 09:07:58;;;;;;;49.20;23.35;;;;;;;8.35;100.00;99540.31;5014875;28;20041;-73
2022/01/04 09:10:24;;;;;;;45.83;21.80;;;;;;;8.32;100.00;99555.31;5014905;28;20038;-72
2022/01/04 09:13:05;;;;;;;54.47;24.08;;;;;;;8.23;100.00;99548.28;5014909;28;20033;-74
2022/01/04 09:15:55;;;;;;;52.38;22.27;;;;;;;8.29;100.00;99552.44;5015346;28;20071;-72
2022/01/04 09:21:03;;;;;;;49.28;23.20;;;;;;;8.39;100.00;99546.72;5015389;28;20041;-73
2022/01/04 09:23:29;;;;;;;49.30;22.30;;;;;;;8.37;100.00;99538.06;5015110;28;20056;-72
2022/01/04 09:25:54;;;;;;;49.80;22.55;;;;;;;8.44;100.00;99543.84;5014977;28;20402;-71
2022/01/04 09:28:21;;;;;;;48.88;22.40;;;;;;;8.39;100.00;99535.84;5014766;28;20060;-72
2022/01/04 09:30:50;;;;;;;46.10;21.92;;;;;;;8.39;100.00;99528.50;5013540;28;20111;-72
2022/01/04 09:33:17;;;;;;;44.17;21.77;;;;;;;8.46;100.00;99536.16;5015671;28;20034;-73
2022/01/04 09:35:43;;;;;;;51.70;22.33;;;;;;;8.40;100.00;99537.44;5016017;28;20076;-72
2022/01/04 09:38:09;;;;;;;51.22;23.00;;;;;;;8.53;100.00;99541.91;5014446;28;20509;-73
2022/01/04 09:40:37;;;;;;;44.65;20.05;;;;;;;8.46;100.00;99549.72;5014434;28;20132;-72
2022/01/04 09:43:04;;;;;;;50.70;23.02;;;;;;;8.48;100.00;99544.78;5014759;28;20037;-73
2022/01/04 09:45:30;;;;;;;52.75;23.95;;;;;;;8.39;100.00;99560.31;5015745;28;20608;-71
2022/01/04 09:47:56;;;;;;;52.08;24.00;;;;;;;8.29;100.00;99553.25;5015191;28;20045;-72
2022/01/04 09:50:21;;;;;;;52.75;22.17;;;;;;;8.36;100.00;99547.34;5015617;28;20148;-72
2022/01/04 09:52:49;;;;;;;58.72;25.05;;;;;;;8.30;100.00;99551.34;5023343;28;20033;-70
2022/01/04 09:55:16;;;;;;;53.42;22.48;;;;;;;8.23;100.00;99549.09;5035243;28;20060;-73
2022/01/04 09:57:44;;;;;;;50.92;24.02;;;;;;;8.19;100.00;99559.00;5034901;28;20397;-73
2022/01/04 10:00:14;;;;;;;39.42;18.95;;;;;;;8.04;100.00;99545.88;5035081;28;20390;-72
2022/01/04 10:02:40;;;;;;;39.33;16.98;;;;;;;8.19;100.00;99547.34;5026133;28;20433;-73
2022/01/04 10:05:17;;;;;;;46.75;19.35;;;;;;;8.11;100.00;99541.56;5014749;28;20045;-73
2022/01/04 10:07:43;;;;;;;56.47;21.48;;;;;;;8.27;100.00;99541.91;5014311;28;20048;-72
2022/01/04 10:10:14;;;;;;;53.40;23.85;;;;;;;8.09;100.00;99532.97;5012901;28;20056;-71
2022/01/04 10:13:01;;;;;;;57.55;24.80;;;;;;;7.96;100.00;99531.19;5013849;28;20049;-72
2022/01/04 10:15:36;;;;;;;56.47;24.38;;;;;;;8.03;100.00;99526.09;5012232;28;20562;-73
2022/01/04 10:18:14;;;;;;;48.97;21.30;;;;;;;7.99;100.00;99522.41;5012234;28;20041;-71
2022/01/04 10:20:41;;;;;;;43.85;18.52;;;;;;;8.11;100.00;99525.28;5014422;28;20320;-72
2022/01/04 10:23:11;;;;;;;30.75;14.98;;;;;;;8.20;100.00;99530.69;5012513;28;20063;-73
2022/01/04 10:25:37;;;;;;;29.02;12.70;;;;;;;8.14;100.00;99535.53;5014812;28;20039;-72
2022/01/04 10:28:02;;;;;;;23.48;10.50;;;;;;;8.25;100.00;99527.84;5013236;28;20045;-72
2022/01/04 10:30:33;;;;;;;19.83;8.50;;;;;;;8.12;100.00;99526.88;5012360;28;20159;-73
2022/01/04 10:33:03;;;;;;;14.85;7.25;;;;;;;8.06;100.00;99532.81;5013745;28;20439;-72
2022/01/04 10:35:34;;;;;;;15.55;7.55;;;;;;;8.20;100.00;99511.69;5012723;28;20064;-72
2022/01/04 10:38:13;;;;;;;16.13;7.63;;;;;;;8.02;100.00;99521.75;5013648;28;20045;-73
2022/01/04 10:40:40;;;;;;;10.20;6.05;;;;;;;8.10;100.00;99510.09;5011535;28;20509;-72
2022/01/04 10:43:13;;;;;;;10.18;6.07;;;;;;;8.01;100.00;99513.94;5015752;28;20041;-73
2022/01/04 10:45:41;;;;;;;12.93;5.50;;;;;;;8.01;100.00;99506.59;5015113;28;20045;-72
2022/01/04 10:48:12;;;;;;;12.82;6.20;;;;;;;8.07;100.00;99491.75;5015432;28;20103;-72
2022/01/04 10:50:39;;;;;;;13.32;7.25;;;;;;;8.09;100.00;99494.16;5035393;28;20044;-75
2022/01/04 10:53:05;;;;;;;13.02;6.72;;;;;;;8.08;100.00;99493.31;5038253;28;20047;-71
2022/01/04 10:55:33;;;;;;;15.63;7.38;;;;;;;8.12;100.00;99494.31;5040900;28;20056;-72
2022/01/04 10:57:58;;;;;;;15.23;7.95;;;;;;;8.27;100.00;99495.72;5039768;28;20052;-71
2022/01/04 11:00:24;;;;;;;16.40;8.10;;;;;;;8.33;100.00;99493.66;5039776;28;20044;-72
2022/01/04 11:02:50;;;;;;;18.63;9.77;;;;;;;8.36;100.00;99503.88;5029330;28;20046;-72
2022/01/04 11:05:21;;;;;;;21.90;10.13;;;;;;;8.28;100.00;99496.53;5018384;28;20043;-73
2022/01/04 11:07:56;;;;;;;22.55;11.68;;;;;;;8.32;100.00;99497.47;5024554;28;20045;-73
2022/01/04 11:10:22;;;;;;;26.27;12.93;;;;;;;8.34;100.00;99495.22;5017841;28;20490;-73
2022/01/04 11:12:48;;;;;;;29.23;14.68;;;;;;;8.47;100.00;99499.72;5018476;28;20531;-73
2022/01/04 11:15:14;;;;;;;37.65;17.38;;;;;;;8.27;100.00;99511.22;5019237;28;20048;-73
2022/01/04 11:17:41;;;;;;;31.42;15.85;;;;;;;8.40;100.00;99515.72;5017373;28;20049;-72
2022/01/04 11:20:07;;;;;;;36.15;17.00;;;;;;;8.33;100.00;99509.94;5017565;28;20069;-71
2022/01/04 11:22:34;;;;;;;36.55;18.00;;;;;;;8.55;100.00;99498.09;5018550;28;20038;-73